createdAt,value
2022-07-30T00:01:34.219Z,7.17
2022-07-30T00:04:24.507Z,8.70
2022-07-30T00:07:13.376Z,9.87
2022-07-30T00:10:03.322Z,9.00
2022-07-30T00:12:52.148Z,6.73
2022-07-30T00:15:40.638Z,7.50
2022-07-30T00:18:29.135Z,9.67
2022-07-30T00:21:20.254Z,9.37
2022-07-30T00:24:25.022Z,8.47
2022-07-30T00:27:15.092Z,7.13
2022-07-30T00:30:03.759Z,6.57
2022-07-30T00:32:52.288Z,6.37
2022-07-30T00:35:40.779Z,7.63
2022-07-30T00:38:29.414Z,6.83
2022-07-30T00:41:17.978Z,10.20
2022-07-30T00:44:07.924Z,6.87
2022-07-30T00:46:56.492Z,6.03
2022-07-30T00:49:45.010Z,7.87
2022-07-30T00:52:33.503Z,6.40
2022-07-30T00:55:22.458Z,6.57
2022-07-30T00:58:10.916Z,7.57
2022-07-30T01:01:01.086Z,5.90
2022-07-30T01:03:50.187Z,6.13
2022-07-30T01:06:39.440Z,7.87
2022-07-30T01:09:27.956Z,6.07
2022-07-30T01:12:18.036Z,6.87
2022-07-30T01:15:08.387Z,6.33
2022-07-30T01:18:01.042Z,6.03
2022-07-30T01:20:53.311Z,6.30
2022-07-30T01:23:45.216Z,5.83
2022-07-30T01:26:35.140Z,6.20
2022-07-30T01:29:23.966Z,7.27
2022-07-30T01:32:12.919Z,6.17
2022-07-30T01:35:01.683Z,9.17
2022-07-30T01:37:50.253Z,7.17
2022-07-30T01:40:38.969Z,6.53
2022-07-30T01:43:28.876Z,6.63
2022-07-30T01:46:17.834Z,7.00
2022-07-30T01:49:09.344Z,6.57
2022-07-30T01:51:57.971Z,7.20
2022-07-30T01:54:47.949Z,9.60
2022-07-30T01:57:36.867Z,7.80
2022-07-30T02:00:26.740Z,7.13
2022-07-30T02:03:15.447Z,6.30
2022-07-30T02:06:08.899Z,6.80
2022-07-30T02:09:00.445Z,6.63
2022-07-30T02:12:09.419Z,7.10
2022-07-30T02:15:05.286Z,6.60
2022-07-30T02:18:00.663Z,7.73
2022-07-30T02:21:00.039Z,8.03
2022-07-30T02:23:51.157Z,8.27
2022-07-30T02:26:42.073Z,8.50
2022-07-30T02:29:31.279Z,8.63
2022-07-30T02:32:22.020Z,7.57
2022-07-30T02:35:16.371Z,7.23
2022-07-30T02:38:05.569Z,9.20
2022-07-30T02:40:54.521Z,8.60
2022-07-30T02:43:43.094Z,7.90
2022-07-30T02:46:32.278Z,7.87
2022-07-30T02:49:41.021Z,7.73
2022-07-30T02:52:31.387Z,9.03
2022-07-30T02:55:19.943Z,17.00
2022-07-30T02:58:08.558Z,7.60
2022-07-30T03:00:57.376Z,7.30
2022-07-30T03:03:46.085Z,7.70
2022-07-30T03:06:34.686Z,8.30
2022-07-30T03:09:24.848Z,7.87
2022-07-30T03:12:13.995Z,9.10
2022-07-30T03:15:02.543Z,7.80
2022-07-30T03:17:53.938Z,8.00
2022-07-30T03:20:46.247Z,8.43
2022-07-30T03:23:38.301Z,7.57
2022-07-30T03:26:28.180Z,8.63
2022-07-30T03:29:16.932Z,8.37
2022-07-30T03:32:10.513Z,9.07
2022-07-30T03:35:06.314Z,10.90
2022-07-30T03:37:57.311Z,9.57
2022-07-30T03:40:46.586Z,8.47
2022-07-30T03:43:36.914Z,8.40
2022-07-30T03:46:26.467Z,8.40
2022-07-30T03:49:15.173Z,7.60
2022-07-30T03:52:08.242Z,8.53
2022-07-30T03:54:56.999Z,8.17
2022-07-30T03:58:04.478Z,7.03
2022-07-30T04:00:55.552Z,10.00
2022-07-30T04:03:44.097Z,10.60
2022-07-30T04:06:33.467Z,8.20
2022-07-30T04:09:23.575Z,7.93
2022-07-30T04:12:13.862Z,7.27
2022-07-30T04:15:02.569Z,7.17
2022-07-30T04:18:12.404Z,7.07
2022-07-30T04:21:00.955Z,6.60
2022-07-30T04:24:04.793Z,8.33
2022-07-30T04:26:55.399Z,8.27
2022-07-30T04:29:43.892Z,10.23
2022-07-30T04:32:33.026Z,6.80
2022-07-30T04:35:50.971Z,7.83
2022-07-30T04:38:53.978Z,6.63
2022-07-30T04:41:49.474Z,6.70
2022-07-30T04:44:57.008Z,7.07
2022-07-30T04:47:48.406Z,7.97
2022-07-30T04:50:51.729Z,6.50
2022-07-30T04:53:41.167Z,9.33
2022-07-30T04:56:31.899Z,5.63
2022-07-30T04:59:20.483Z,6.10
2022-07-30T05:02:09.108Z,6.33
2022-07-30T05:04:58.339Z,6.63
2022-07-30T05:07:49.972Z,6.07
2022-07-30T05:10:39.063Z,6.80
2022-07-30T05:13:38.029Z,6.83
2022-07-30T05:16:29.690Z,6.87
2022-07-30T05:19:20.718Z,11.17
2022-07-30T05:22:09.734Z,9.63
2022-07-30T05:24:59.801Z,6.03
2022-07-30T05:27:48.343Z,7.13
2022-07-30T05:30:38.295Z,7.27
2022-07-30T05:33:40.929Z,5.90
2022-07-30T05:36:33.584Z,7.57
2022-07-30T05:39:22.663Z,7.00
2022-07-30T05:42:15.098Z,9.87
2022-07-30T05:45:13.072Z,5.30
2022-07-30T05:48:03.072Z,7.33
2022-07-30T05:50:51.895Z,5.83
2022-07-30T05:53:41.025Z,6.40
2022-07-30T05:56:32.331Z,9.07
2022-07-30T05:59:36.552Z,6.03
2022-07-30T06:02:31.954Z,6.40
2022-07-30T06:05:49.374Z,5.67
2022-07-30T06:08:37.975Z,7.97
2022-07-30T06:11:26.850Z,5.80
2022-07-30T06:14:15.312Z,5.37
2022-07-30T06:17:05.575Z,6.07
2022-07-30T06:20:21.454Z,6.30
2022-07-30T06:23:33.169Z,5.70
2022-07-30T06:26:44.266Z,6.83
2022-07-30T06:29:33.404Z,6.10
2022-07-30T06:32:24.176Z,6.50
2022-07-30T06:35:12.743Z,8.57
2022-07-30T06:38:07.732Z,5.73
2022-07-30T06:41:08.689Z,5.97
2022-07-30T06:44:19.372Z,4.80
2022-07-30T06:47:29.531Z,7.13
2022-07-30T06:50:20.292Z,7.93
2022-07-30T06:53:08.938Z,5.03
2022-07-30T06:56:16.451Z,7.77
2022-07-30T06:59:16.041Z,6.00
2022-07-30T07:02:26.848Z,6.20
2022-07-30T07:05:30.528Z,7.73
2022-07-30T07:08:19.927Z,5.67
2022-07-30T07:11:15.551Z,7.77
2022-07-30T07:14:12.200Z,7.30
2022-07-30T07:17:01.341Z,8.37
2022-07-30T07:20:29.967Z,5.97
2022-07-30T07:23:24.705Z,7.03
2022-07-30T07:26:15.918Z,6.07
2022-07-30T07:29:05.381Z,4.63
2022-07-30T07:32:06.805Z,5.80
2022-07-30T07:34:58.872Z,9.20
2022-07-30T07:37:49.430Z,6.10
2022-07-30T07:40:43.332Z,6.77
2022-07-30T07:43:31.870Z,6.63
2022-07-30T07:46:33.650Z,8.37
2022-07-30T07:49:24.445Z,5.23
2022-07-30T07:52:13.898Z,7.73
2022-07-30T07:55:03.746Z,9.07
2022-07-30T07:57:54.744Z,7.47
2022-07-30T08:00:43.358Z,9.17
2022-07-30T08:03:31.929Z,5.13
2022-07-30T08:06:23.190Z,6.40
2022-07-30T08:09:43.670Z,6.93
2022-07-30T08:12:57.869Z,7.87
2022-07-30T08:16:05.325Z,5.77
2022-07-30T08:19:32.239Z,10.03
2022-07-30T08:22:37.500Z,8.20
2022-07-30T08:25:26.027Z,5.67
2022-07-30T08:28:35.293Z,6.37
2022-07-30T08:31:25.273Z,6.67
2022-07-30T08:34:14.382Z,6.00
2022-07-30T08:37:03.077Z,7.47
2022-07-30T08:39:51.640Z,14.00
2022-07-30T08:42:43.252Z,9.60
2022-07-30T08:45:34.964Z,9.23
2022-07-30T08:49:00.622Z,9.30
2022-07-30T08:51:58.123Z,6.73
2022-07-30T08:55:15.769Z,6.80
2022-07-30T08:58:04.866Z,5.97
2022-07-30T09:03:50.506Z,8.60
2022-07-30T09:06:40.860Z,6.87
2022-07-30T09:09:29.648Z,5.70
2022-07-30T09:12:37.663Z,4.57
2022-07-30T09:15:28.395Z,8.00
2022-07-30T09:18:27.866Z,6.67
2022-07-30T09:21:18.940Z,6.90
2022-07-30T09:24:12.399Z,5.53
2022-07-30T09:27:45.645Z,7.53
2022-07-30T09:30:54.550Z,6.67
2022-07-30T09:34:27.536Z,6.93
2022-07-30T09:37:21.920Z,7.90
2022-07-30T09:40:39.461Z,4.93
2022-07-30T09:43:53.764Z,5.93
2022-07-30T09:46:53.443Z,6.17
2022-07-30T09:49:49.065Z,6.33
2022-07-30T09:52:43.968Z,8.70
2022-07-30T09:55:41.417Z,5.93
2022-07-30T09:58:50.055Z,7.77
2022-07-30T10:01:55.054Z,6.10
2022-07-30T10:05:14.080Z,7.00
2022-07-30T10:08:09.248Z,5.93
2022-07-30T10:11:08.540Z,4.87
2022-07-30T10:14:00.219Z,6.13
2022-07-30T10:16:48.877Z,9.93
2022-07-30T10:19:39.885Z,5.33
2022-07-30T10:23:10.080Z,7.10
2022-07-30T10:26:23.038Z,5.70
2022-07-30T10:29:33.672Z,6.60
2022-07-30T10:32:30.465Z,6.27
2022-07-30T10:35:34.403Z,4.00
2022-07-30T10:38:32.384Z,6.60
2022-07-30T10:41:42.904Z,8.73
2022-07-30T10:45:17.345Z,4.20
2022-07-30T10:48:06.506Z,4.30
2022-07-30T10:50:56.940Z,4.13
2022-07-30T10:53:47.980Z,3.17
2022-07-30T10:56:37.051Z,4.30
2022-07-30T10:59:28.943Z,4.73
2022-07-30T11:02:18.003Z,3.40
2022-07-30T11:05:43.753Z,3.70
2022-07-30T11:08:42.680Z,5.40
2022-07-30T11:12:02.140Z,3.60
2022-07-30T11:15:07.205Z,2.97
2022-07-30T11:18:12.973Z,2.20
2022-07-30T11:21:22.581Z,6.40
2022-07-30T11:24:43.338Z,3.43
2022-07-30T11:27:45.670Z,6.60
2022-07-30T11:30:36.056Z,4.43
2022-07-30T11:33:32.177Z,2.40
2022-07-30T11:36:21.739Z,2.13
2022-07-30T11:39:12.883Z,4.07
2022-07-30T11:42:34.280Z,2.70
2022-07-30T11:45:30.546Z,3.87
2022-07-30T11:48:20.872Z,3.73
2022-07-30T11:51:09.718Z,7.57
2022-07-30T11:54:03.210Z,3.53
2022-07-30T11:56:52.792Z,3.53
2022-07-30T11:59:54.700Z,3.33
2022-07-30T12:02:45.258Z,3.90
2022-07-30T12:05:33.796Z,3.20
2022-07-30T12:08:33.397Z,6.20
2022-07-30T12:11:25.015Z,3.47
2022-07-30T12:14:14.052Z,5.00
2022-07-30T12:17:02.746Z,3.23
2022-07-30T12:19:52.806Z,4.90
2022-07-30T12:22:41.294Z,5.27
2022-07-30T12:25:30.192Z,5.27
2022-07-30T12:28:22.546Z,6.10
2022-07-30T12:31:11.104Z,4.07
2022-07-30T12:34:00.649Z,3.00
2022-07-30T12:36:50.573Z,4.03
2022-07-30T12:39:40.556Z,4.00
2022-07-30T12:42:29.304Z,2.77
2022-07-30T12:45:28.381Z,7.33
2022-07-30T12:48:16.843Z,4.03
2022-07-30T12:51:07.239Z,4.10
2022-07-30T12:53:57.681Z,6.50
2022-07-30T12:56:59.320Z,5.67
2022-07-30T12:59:48.254Z,3.90
2022-07-30T13:02:37.389Z,6.63
2022-07-30T13:05:48.695Z,2.80
2022-07-30T13:08:51.861Z,2.23
2022-07-30T13:11:48.968Z,2.97
2022-07-30T13:14:37.931Z,2.07
2022-07-30T13:17:26.416Z,6.57
2022-07-30T13:20:15.456Z,2.30
2022-07-30T13:23:03.988Z,2.43
2022-07-30T13:25:52.628Z,3.13
2022-07-30T13:28:42.506Z,3.07
2022-07-30T13:31:42.759Z,3.80
2022-07-30T13:34:31.979Z,3.60
2022-07-30T13:37:20.444Z,2.20
2022-07-30T13:40:12.543Z,2.07
2022-07-30T13:43:01.037Z,2.27
2022-07-30T13:45:51.301Z,2.77
2022-07-30T13:48:40.171Z,2.30
2022-07-30T13:51:28.665Z,2.70
2022-07-30T13:54:17.123Z,4.43
2022-07-30T13:57:06.125Z,2.53
2022-07-30T13:59:54.603Z,2.07
2022-07-30T14:02:44.514Z,1.57
2022-07-30T14:05:33.211Z,3.17
2022-07-30T14:08:21.965Z,3.70
2022-07-30T14:11:10.488Z,2.30
2022-07-30T14:13:58.961Z,1.87
2022-07-30T14:16:50.667Z,2.00
2022-07-30T14:19:43.511Z,1.87
2022-07-30T14:22:32.016Z,1.80
2022-07-30T14:25:20.512Z,2.10
2022-07-30T14:28:09.064Z,1.77
2022-07-30T14:30:57.560Z,1.63
2022-07-30T14:33:46.075Z,2.40
2022-07-30T14:36:37.289Z,2.13
2022-07-30T14:39:25.990Z,1.90
2022-07-30T14:42:14.467Z,1.50
2022-07-30T14:45:03.841Z,1.60
2022-07-30T14:47:52.367Z,1.40
2022-07-30T14:51:03.356Z,3.17
2022-07-30T14:53:51.513Z,2.17
2022-07-30T14:56:40.238Z,1.73
2022-07-30T14:59:28.737Z,1.73
2022-07-30T15:02:17.221Z,1.67
2022-07-30T15:05:07.020Z,2.83
2022-07-30T15:07:55.513Z,1.80
2022-07-30T15:10:45.351Z,1.90
2022-07-30T15:13:33.837Z,1.93
2022-07-30T15:16:24.237Z,2.20
2022-07-30T15:19:13.649Z,2.97
2022-07-30T15:22:03.336Z,2.33
2022-07-30T15:24:52.029Z,4.07
2022-07-30T15:27:41.802Z,2.63
2022-07-30T15:30:30.270Z,2.23
2022-07-30T15:33:18.984Z,2.30
2022-07-30T15:36:07.638Z,7.80
2022-07-30T15:38:56.086Z,4.93
2022-07-30T15:41:44.894Z,2.53
2022-07-30T15:44:34.857Z,1.77
2022-07-30T15:47:24.026Z,3.77
2022-07-30T15:50:12.596Z,2.23
2022-07-30T15:53:01.150Z,1.90
2022-07-30T15:55:50.966Z,2.93
2022-07-30T15:58:43.383Z,2.93
2022-07-30T16:01:34.288Z,5.83
2022-07-30T16:04:31.749Z,3.77
2022-07-30T16:07:20.568Z,3.03
2022-07-30T16:10:10.080Z,3.20
2022-07-30T16:12:58.641Z,3.03
2022-07-30T16:15:47.086Z,5.30
2022-07-30T16:18:36.881Z,2.43
2022-07-30T16:21:25.311Z,1.77
2022-07-30T16:24:13.754Z,3.50
2022-07-30T16:27:02.237Z,4.17
2022-07-30T16:29:50.749Z,1.70
2022-07-30T16:32:39.218Z,2.53
2022-07-30T16:35:29.041Z,1.80
2022-07-30T16:38:17.582Z,1.80
2022-07-30T16:41:07.647Z,2.33
2022-07-30T16:43:58.867Z,2.90
2022-07-30T16:46:48.384Z,2.40
2022-07-30T16:49:38.677Z,3.03
2022-07-30T16:52:28.493Z,2.73
2022-07-30T16:55:16.935Z,6.67
2022-07-30T16:58:05.397Z,3.00
2022-07-30T17:00:53.985Z,3.70
2022-07-30T17:03:42.538Z,2.93
2022-07-30T17:06:31.005Z,2.60
2022-07-30T17:09:20.846Z,1.83
2022-07-30T17:12:12.450Z,2.23
2022-07-30T17:15:01.023Z,2.23
2022-07-30T17:17:49.510Z,1.70
2022-07-30T17:20:39.234Z,2.33
2022-07-30T17:23:27.677Z,3.57
2022-07-30T17:26:17.528Z,2.17
2022-07-30T17:29:08.659Z,4.40
2022-07-30T17:31:59.415Z,3.00
2022-07-30T17:34:48.111Z,3.40
2022-07-30T17:37:36.964Z,1.97
2022-07-30T17:40:28.884Z,3.43
2022-07-30T17:43:21.163Z,2.53
2022-07-30T17:46:09.554Z,4.13
2022-07-30T17:48:58.138Z,2.13
2022-07-30T17:51:48.400Z,2.97
2022-07-30T17:54:36.945Z,2.93
2022-07-30T17:57:25.397Z,3.37
2022-07-30T18:00:16.166Z,5.00
2022-07-30T18:03:04.766Z,3.00
2022-07-30T18:05:53.805Z,2.50
2022-07-30T18:08:42.273Z,2.17
2022-07-30T18:11:30.685Z,2.40
2022-07-30T18:14:19.263Z,4.97
2022-07-30T18:17:14.084Z,2.63
2022-07-30T18:20:02.959Z,3.40
2022-07-30T18:22:51.853Z,1.70
2022-07-30T18:25:52.952Z,2.77
2022-07-30T18:28:43.344Z,4.20
2022-07-30T18:31:31.829Z,2.13
2022-07-30T18:34:21.681Z,1.93
2022-07-30T18:37:10.172Z,1.97
2022-07-30T18:39:58.659Z,2.87
2022-07-30T18:42:49.639Z,3.53
2022-07-30T18:45:38.088Z,3.70
2022-07-30T18:48:27.651Z,3.10
2022-07-30T18:51:18.641Z,4.17
2022-07-30T18:54:07.309Z,3.00
2022-07-30T18:56:55.846Z,3.53
2022-07-30T18:59:44.367Z,2.63
2022-07-30T19:02:32.970Z,4.47
2022-07-30T19:05:21.920Z,5.47
2022-07-30T19:08:11.739Z,4.00
2022-07-30T19:11:01.009Z,4.93
2022-07-30T19:13:49.507Z,3.13
2022-07-30T19:16:38.085Z,2.57
2022-07-30T19:19:26.601Z,3.30
2022-07-30T19:22:15.636Z,3.33
2022-07-30T19:25:06.600Z,1.67
2022-07-30T19:27:55.062Z,3.20
2022-07-30T19:30:43.514Z,1.80
2022-07-30T19:33:32.028Z,2.33
2022-07-30T19:36:21.018Z,1.80
2022-07-30T19:39:15.982Z,1.43
2022-07-30T19:42:11.730Z,2.77
2022-07-30T19:45:01.387Z,2.37
2022-07-30T19:47:52.984Z,4.30
2022-07-30T19:50:43.846Z,1.70
2022-07-30T19:53:34.634Z,2.67
2022-07-30T19:56:23.556Z,1.97
2022-07-30T19:59:15.148Z,2.80
2022-07-30T20:02:04.010Z,2.07
2022-07-30T20:04:52.684Z,1.93
2022-07-30T20:07:41.210Z,2.23
2022-07-30T20:10:33.543Z,2.70
2022-07-30T20:13:22.061Z,2.17
2022-07-30T20:16:12.371Z,3.27
2022-07-30T20:19:03.133Z,4.53
2022-07-30T20:21:56.625Z,2.90
2022-07-30T20:24:47.888Z,2.70
2022-07-30T20:27:38.718Z,3.33
2022-07-30T20:30:27.547Z,2.00
2022-07-30T20:33:17.830Z,2.37
2022-07-30T20:36:24.418Z,2.17
2022-07-30T20:39:13.384Z,2.97
2022-07-30T20:42:11.904Z,1.90
2022-07-30T20:45:00.869Z,1.90
2022-07-30T20:47:52.228Z,3.50
2022-07-30T20:50:43.683Z,2.70
2022-07-30T20:53:36.092Z,2.10
2022-07-30T20:56:25.516Z,2.60
2022-07-30T20:59:14.016Z,3.40
2022-07-30T21:02:03.757Z,3.30
2022-07-30T21:04:56.681Z,2.20
2022-07-30T21:10:57.903Z,2.77
2022-07-30T21:13:48.778Z,2.50
2022-07-30T21:16:38.251Z,3.77
2022-07-30T21:19:29.121Z,3.00
2022-07-30T21:22:18.656Z,4.93
2022-07-30T21:25:12.050Z,2.00
2022-07-30T21:28:00.530Z,2.00
2022-07-30T21:30:51.482Z,3.10
2022-07-30T21:33:40.135Z,5.40
2022-07-30T21:36:28.742Z,2.83
2022-07-30T21:39:17.607Z,2.73
2022-07-30T21:42:07.824Z,2.77
2022-07-30T21:44:56.275Z,3.37
2022-07-30T21:47:47.656Z,2.13
2022-07-30T21:50:37.958Z,3.13
2022-07-30T21:53:44.529Z,2.50
2022-07-30T21:56:33.885Z,2.10
2022-07-30T21:59:23.725Z,3.23
2022-07-30T22:02:15.870Z,3.60
2022-07-30T22:05:08.111Z,2.47
2022-07-30T22:07:57.189Z,3.10
2022-07-30T22:10:47.104Z,2.30
2022-07-30T22:13:51.246Z,3.73
2022-07-30T22:16:46.048Z,3.77
2022-07-30T22:19:35.023Z,3.03
2022-07-30T22:22:27.499Z,4.13
2022-07-30T22:25:16.891Z,3.63
2022-07-30T22:28:05.870Z,2.27
2022-07-30T22:30:56.323Z,2.87
2022-07-30T22:33:46.177Z,3.17
2022-07-30T22:36:38.316Z,2.90
2022-07-30T22:39:31.934Z,2.83
2022-07-30T22:42:36.564Z,2.80
2022-07-30T22:45:49.154Z,2.63
2022-07-30T22:48:38.451Z,2.87
2022-07-30T22:52:02.859Z,2.97
2022-07-30T22:54:36.797Z,2.03
2022-07-30T22:57:25.270Z,3.90
2022-07-30T23:00:27.212Z,2.40
2022-07-30T23:03:17.028Z,4.23
2022-07-30T23:06:05.506Z,2.60
2022-07-30T23:08:56.441Z,4.47
2022-07-30T23:11:45.313Z,2.17
2022-07-30T23:12:31.356Z,2.40
2022-07-30T23:14:33.752Z,2.50
2022-07-30T23:17:22.217Z,3.47
2022-07-30T23:20:13.668Z,2.73
2022-07-30T23:23:02.981Z,2.63
2022-07-30T23:25:52.771Z,2.40
2022-07-30T23:28:41.515Z,4.43
2022-07-30T23:31:29.985Z,2.97
2022-07-30T23:34:18.551Z,3.23
2022-07-30T23:37:09.683Z,4.57
2022-07-30T23:40:01.441Z,3.37
2022-07-30T23:42:51.845Z,2.87
2022-07-30T23:45:40.426Z,2.40
2022-07-30T23:48:29.143Z,5.40
2022-07-30T23:51:17.711Z,2.20
2022-07-30T23:54:06.332Z,3.73
2022-07-30T23:56:56.184Z,2.80
2022-07-30T23:59:46.059Z,2.77
